Terminal Aerodrome Forecast
Issued by NWS

Home | Current Version | Previous Version | Text Only | Print | Product List | Glossary On
Versions: 1 2 3 4 5 6 7 8 9 10 11 12
532
FTUS46 KHNX 252326
TAFMER
TAF
KMER 252326Z 2600/2624 32009KT P6SM SKC
     FM261000 30008KT P6SM SCT050 BKN120
     FM261600 13004KT P6SM OVC050 PROB30 2616/2617 P6SM -RA OVC050
     FM261700 13006KT P6SM -RA BKN050=

USA.gov is the U.S. government's official web portal to all federal, state and local government web resources and services.